Amelia City, Florida
Current Conditions -  °F | °C
As of 12:35 PM on Monday 24 Nov 2014 (Local Time) from KFHB Reporting Station
Scattered Clouds Scattered Clouds  
Wind Chill: 86°   Ceiling: Unl
Heat Index: 92°   Visibility: 10mi
Dew Point: 72°   Wind: 14mph
Humidity: 62%   Direction: 210°SSW
Pressure: 29.88"   Gusts: NA
Location:  30.6056°N, 81.5268°W
Report Text: KFHB 241735Z AUTO 21012KT 10SM SCT026 30/22 A2988 RMK AO1
Loading
Personal Weather Stations






























Interactive Weather Map New forecast layout! Learn more

10-Day Weather Forecast

Advertisements
Track Severe Weather on mobile